Time;durP1;ratioP1;P1;durP2;ratioP2;P2;SDS_P1;SDS_P2;PMS_P1;PMS_P2;Temp;Humidity;BMP_temperature;BMP_pressure;BME280_temperature;BME280_humidity;BME280_pressure;Samples;Min_cycle;Max_cycle;Signal;HPM_P1;HPM_P2
2023/03/07 00:01:41;;;;;;;16.15;5.35;;;;;;;8.42;68.53;99961.66;5004205;28;20531;-43
2023/03/07 00:04:07;;;;;;;14.25;5.00;;;;;;;8.51;67.95;99962.59;5000383;28;20033;-43
2023/03/07 00:06:33;;;;;;;9.07;4.80;;;;;;;8.73;68.33;99962.72;5003644;28;20113;-44
2023/03/07 00:09:00;;;;;;;11.75;4.60;;;;;;;9.04;67.07;99968.97;5000608;28;20114;-43
2023/03/07 00:11:26;;;;;;;10.20;5.03;;;;;;;9.18;67.04;99965.59;5003160;28;20496;-44
2023/03/07 00:13:51;;;;;;;13.48;5.07;;;;;;;8.74;67.63;99967.06;5000612;28;20048;-43
2023/03/07 00:16:20;;;;;;;11.65;4.68;;;;;;;8.72;68.04;99972.25;5004910;28;20066;-42
2023/03/07 00:18:46;;;;;;;9.60;4.72;;;;;;;8.92;68.08;99964.59;5005878;28;20030;-57
2023/03/07 00:21:14;;;;;;;10.65;5.00;;;;;;;8.55;68.10;99953.97;5005289;28;20034;-43
2023/03/07 00:23:42;;;;;;;15.05;5.43;;;;;;;8.90;67.23;99959.38;4987256;28;20080;-43
2023/03/07 00:26:14;;;;;;;13.80;5.20;;;;;;;8.78;67.29;99963.66;4999738;28;20088;-44
2023/03/07 00:28:39;;;;;;;12.02;4.57;;;;;;;8.92;67.31;99962.84;5003243;28;20036;-43
2023/03/07 00:31:07;;;;;;;13.60;4.45;;;;;;;8.83;66.81;99965.41;4999880;28;20442;-43
2023/03/07 00:33:33;;;;;;;10.35;4.35;;;;;;;8.71;67.20;99957.56;5004061;28;20026;-43
2023/03/07 00:36:02;;;;;;;9.77;4.50;;;;;;;8.94;66.89;99958.53;5000180;28;20030;-42
2023/03/07 00:38:29;;;;;;;18.83;4.63;;;;;;;9.01;66.29;99961.19;5003837;28;20030;-45
2023/03/07 00:40:59;;;;;;;11.60;4.43;;;;;;;9.12;66.07;99959.50;5002140;28;20030;-47
2023/03/07 00:43:25;;;;;;;12.48;4.40;;;;;;;8.70;67.76;99952.34;5004494;28;20034;-45
2023/03/07 00:45:51;;;;;;;13.10;4.32;;;;;;;8.95;67.26;99956.81;5002378;28;20030;-42
2023/03/07 00:48:17;;;;;;;9.63;4.00;;;;;;;8.86;66.76;99946.34;5011442;28;20439;-44
2023/03/07 00:50:42;;;;;;;9.60;4.03;;;;;;;9.19;65.85;99943.06;5009747;28;20037;-44
2023/03/07 00:53:08;;;;;;;11.57;4.32;;;;;;;9.10;66.15;99946.47;5001054;28;20105;-46
2023/03/07 00:55:33;;;;;;;11.65;4.05;;;;;;;9.17;65.69;99949.97;5004098;28;20044;-44
2023/03/07 00:57:58;;;;;;;8.70;3.63;;;;;;;9.13;66.04;99943.91;5007557;28;20030;-51
2023/03/07 01:00:24;;;;;;;11.52;2.85;;;;;;;8.87;66.16;99940.31;5006256;28;20037;-42
2023/03/07 01:02:50;;;;;;;8.25;2.47;;;;;;;8.77;66.05;99946.31;5002144;28;20065;-43
2023/03/07 01:05:15;;;;;;;7.35;2.50;;;;;;;8.86;65.64;99949.81;4985803;28;20516;-44
2023/03/07 01:07:40;;;;;;;11.13;2.22;;;;;;;9.15;65.32;99943.91;5006885;28;20033;-48
2023/03/07 01:10:06;;;;;;;7.57;2.25;;;;;;;9.08;64.92;99935.22;5002956;28;20543;-46
2023/03/07 01:12:31;;;;;;;9.10;1.98;;;;;;;9.07;64.95;99936.06;5006916;28;20042;-43
2023/03/07 01:14:57;;;;;;;9.27;1.73;;;;;;;8.76;66.00;99934.19;5003060;28;20496;-44
2023/03/07 01:17:22;;;;;;;7.82;2.35;;;;;;;8.76;66.67;99939.38;5007516;28;20057;-46
2023/03/07 01:19:47;;;;;;;9.73;2.20;;;;;;;8.38;67.42;99936.53;5003237;28;20030;-46
2023/03/07 01:22:12;;;;;;;6.95;2.05;;;;;;;8.74;66.57;99938.50;5007414;28;20026;-44
2023/03/07 01:24:38;;;;;;;5.70;1.60;;;;;;;9.02;65.84;99931.72;5011922;28;20033;-44
2023/03/07 01:27:04;;;;;;;9.45;1.60;;;;;;;8.87;66.18;99935.09;5007250;28;20072;-46
2023/03/07 01:29:29;;;;;;;7.32;1.58;;;;;;;8.60;66.82;99925.41;5008657;28;20516;-43
2023/03/07 01:31:54;;;;;;;6.97;1.75;;;;;;;8.68;66.93;99920.25;5002981;28;20030;-48
2023/03/07 01:34:20;;;;;;;6.82;1.40;;;;;;;8.82;66.33;99921.22;5006975;28;20412;-44
2023/03/07 01:36:45;;;;;;;5.28;1.63;;;;;;;8.35;67.04;99923.53;5006771;28;20091;-44
2023/03/07 01:39:16;;;;;;;7.93;1.33;;;;;;;8.93;65.50;99922.13;5002618;28;20404;-46
2023/03/07 01:41:42;;;;;;;6.68;1.35;;;;;;;8.44;66.84;99921.84;5006154;28;20091;-42
2023/03/07 01:44:13;;;;;;;7.35;1.50;;;;;;;8.87;65.67;99917.78;5002599;28;20022;-43
2023/03/07 01:46:44;;;;;;;9.27;1.75;;;;;;;8.83;65.96;99909.97;5006419;28;20470;-43
2023/03/07 01:49:14;;;;;;;8.43;1.60;;;;;;;8.58;66.66;99913.28;5002668;28;20033;-43
2023/03/07 01:51:42;;;;;;;11.32;1.52;;;;;;;8.95;65.49;99907.44;5006121;28;20484;-44
2023/03/07 01:54:10;;;;;;;6.40;1.55;;;;;;;8.93;65.69;99901.34;5002510;28;20041;-42
2023/03/07 01:56:37;;;;;;;5.35;1.50;;;;;;;8.71;66.56;99894.31;5007316;28;20026;-42
2023/03/07 01:59:04;;;;;;;9.82;2.35;;;;;;;8.84;65.80;99891.75;5003339;28;20033;-44
2023/03/07 02:01:30;;;;;;;7.97;2.00;;;;;;;8.69;66.21;99883.91;5007740;28;20064;-45
2023/03/07 02:04:01;;;;;;;7.85;2.10;;;;;;;8.51;66.82;99892.47;5005781;28;20030;-48
2023/03/07 02:06:32;;;;;;;10.48;1.90;;;;;;;8.97;65.48;99890.09;5008243;28;20042;-44
2023/03/07 02:08:58;;;;;;;6.63;1.85;;;;;;;9.07;65.51;99880.59;5005003;28;20207;-44
2023/03/07 02:11:24;;;;;;;10.00;1.98;;;;;;;8.86;65.91;99887.44;5009585;28;20518;-44
2023/03/07 02:13:50;;;;;;;9.82;2.22;;;;;;;9.00;64.75;99891.84;5006429;28;20045;-46
2023/03/07 02:16:15;;;;;;;10.57;2.13;;;;;;;8.82;65.27;99890.91;5010347;28;20034;-43
2023/03/07 02:18:44;;;;;;;8.80;2.13;;;;;;;8.82;65.66;99882.25;5004965;28;20124;-43
2023/03/07 02:21:22;;;;;;;6.72;2.03;;;;;;;8.94;64.86;99884.88;5001108;28;20087;-45
2023/03/07 02:24:27;;;;;;;8.25;2.22;;;;;;;9.18;64.64;99878.91;5004036;28;20030;-45
2023/03/07 02:26:53;;;;;;;5.95;2.30;;;;;;;9.12;64.84;99876.28;5004589;28;20117;-43
2023/03/07 02:29:19;;;;;;;6.53;2.70;;;;;;;9.26;64.04;99875.47;5006212;28;20455;-46
2023/03/07 02:31:45;;;;;;;11.05;2.72;;;;;;;8.94;64.83;99872.75;5005659;28;20046;-45
2023/03/07 02:34:19;;;;;;;10.15;2.78;;;;;;;8.51;65.97;99876.88;5001192;28;20040;-43
2023/03/07 02:36:45;;;;;;;9.20;3.15;;;;;;;8.63;65.82;99867.41;5003997;28;25376;-44
2023/03/07 02:39:10;;;;;;;10.52;3.38;;;;;;;8.75;65.06;99870.06;5001404;28;20038;-43
2023/03/07 02:41:38;;;;;;;12.45;3.10;;;;;;;8.69;64.97;99868.31;5004129;28;20034;-43
2023/03/07 02:44:03;;;;;;;9.27;3.40;;;;;;;8.64;64.86;99861.38;5000643;28;20039;-49
2023/03/07 02:46:28;;;;;;;9.30;3.25;;;;;;;8.63;64.09;99862.22;4989100;28;20026;-43
2023/03/07 02:48:54;;;;;;;8.65;3.13;;;;;;;8.94;63.48;99864.97;5004460;28;20030;-45
2023/03/07 02:51:19;;;;;;;9.35;3.40;;;;;;;8.76;63.80;99856.22;5005083;28;20041;-44
2023/03/07 02:53:45;;;;;;;11.93;3.33;;;;;;;8.50;64.33;99856.09;5004506;28;20092;-49
2023/03/07 02:56:10;;;;;;;10.32;3.30;;;;;;;8.80;63.78;99853.63;5001908;28;20049;-44
2023/03/07 02:58:35;;;;;;;10.43;3.30;;;;;;;8.85;63.81;99844.13;5007979;28;20033;-42
2023/03/07 03:01:01;;;;;;;7.32;3.40;;;;;;;8.74;63.67;99853.59;5002952;28;20030;-45
2023/03/07 03:03:26;;;;;;;11.55;3.50;;;;;;;8.66;64.16;99849.25;5003907;28;20034;-47
2023/03/07 03:05:51;;;;;;;12.40;3.53;;;;;;;8.89;63.12;99845.88;5000667;28;20034;-44
2023/03/07 03:08:17;;;;;;;10.43;3.50;;;;;;;8.90;63.30;99847.59;5004463;28;20037;-45
2023/03/07 03:10:42;;;;;;;9.65;3.70;;;;;;;8.94;63.37;99843.31;5003934;28;20053;-44
2023/03/07 03:13:07;;;;;;;10.70;3.50;;;;;;;8.57;64.40;99842.28;4999986;28;20034;-44
2023/03/07 03:15:33;;;;;;;9.38;3.30;;;;;;;8.88;63.52;99836.34;5003969;28;20022;-46
2023/03/07 03:17:58;;;;;;;9.77;3.22;;;;;;;9.01;63.13;99841.59;5000780;28;20038;-42
2023/03/07 03:20:24;;;;;;;7.72;3.58;;;;;;;9.00;63.15;99839.84;5004158;28;20029;-45
2023/03/07 03:22:51;;;;;;;8.15;3.10;;;;;;;9.07;62.69;99833.81;4999913;28;20488;-43
2023/03/07 03:25:16;;;;;;;8.63;3.25;;;;;;;8.90;63.39;99833.75;5004394;28;20037;-43
2023/03/07 03:27:42;;;;;;;9.27;3.42;;;;;;;8.70;63.46;99838.00;5004091;28;20088;-45
2023/03/07 03:30:10;;;;;;;11.63;3.40;;;;;;;8.92;63.17;99832.88;4999652;28;20036;-43
2023/03/07 03:32:39;;;;;;;5.22;3.22;;;;;;;8.80;64.24;99834.56;5002927;28;20026;-42
2023/03/07 03:35:06;;;;;;;8.57;3.25;;;;;;;8.61;64.40;99841.41;4963601;28;1067053;-43
2023/03/07 03:37:32;;;;;;;7.97;3.20;;;;;;;8.18;65.59;99840.28;5005609;28;20030;-42
2023/03/07 03:39:57;;;;;;;8.13;2.28;;;;;;;7.88;65.45;99835.75;5003010;28;20034;-43
2023/03/07 03:42:22;;;;;;;6.80;2.05;;;;;;;7.88;65.34;99845.25;5008032;28;20492;-42
2023/03/07 03:44:48;;;;;;;6.15;1.77;;;;;;;8.00;65.13;99841.03;5006349;28;20033;-48
2023/03/07 03:47:14;;;;;;;6.78;1.85;;;;;;;8.09;65.81;99838.50;5013160;28;20098;-43
2023/03/07 03:49:39;;;;;;;7.82;1.70;;;;;;;7.88;66.88;99842.66;5012805;28;20037;-46
2023/03/07 03:52:04;;;;;;;8.90;1.67;;;;;;;7.26;68.94;99836.06;5008201;28;20034;-47
2023/03/07 03:54:30;;;;;;;7.63;1.70;;;;;;;7.70;67.88;99826.09;5012467;28;20034;-43
2023/03/07 03:56:56;;;;;;;6.50;1.80;;;;;;;7.88;67.60;99834.88;5006917;28;20072;-44
2023/03/07 03:59:22;;;;;;;7.65;1.63;;;;;;;8.04;67.51;99827.22;5004582;28;20082;-44
2023/03/07 04:01:47;;;;;;;6.18;1.33;;;;;;;7.81;67.76;99820.13;5001086;28;20025;-44
2023/03/07 04:04:13;;;;;;;5.82;1.40;;;;;;;7.91;67.59;99816.75;5004274;28;20026;-45
2023/03/07 04:06:39;;;;;;;5.10;1.13;;;;;;;8.36;66.23;99823.97;5005289;28;20034;-42
2023/03/07 04:09:05;;;;;;;4.53;1.15;;;;;;;8.15;66.94;99819.50;5000867;28;20050;-44
2023/03/07 04:11:31;;;;;;;6.90;1.10;;;;;;;7.96;67.54;99815.03;5004064;28;20040;-43
2023/03/07 04:13:56;;;;;;;6.85;1.30;;;;;;;8.00;67.90;99821.97;5000421;28;20045;-44
2023/03/07 04:16:22;;;;;;;7.30;1.20;;;;;;;8.14;67.57;99823.81;5004355;28;20038;-46
2023/03/07 04:18:49;;;;;;;7.45;1.20;;;;;;;8.27;66.81;99818.69;5000384;28;20397;-45
2023/03/07 04:21:15;;;;;;;8.02;1.15;;;;;;;8.19;67.14;99820.38;5003221;28;20104;-40
2023/03/07 04:23:41;;;;;;;7.65;1.00;;;;;;;8.22;67.33;99816.09;5004162;28;20030;-44
2023/03/07 04:26:07;;;;;;;8.07;1.23;;;;;;;8.31;66.90;99815.28;5002240;28;20034;-44
2023/03/07 04:28:44;;;;;;;7.15;1.20;;;;;;;8.06;67.51;99815.09;5006886;28;20480;-46
2023/03/07 04:31:22;;;;;;;7.97;1.30;;;;;;;7.58;67.37;99812.16;5001215;28;20034;-44
2023/03/07 04:33:48;;;;;;;9.30;1.10;;;;;;;7.64;66.73;99810.47;4987809;28;20455;-43
2023/03/07 04:36:17;;;;;;;6.00;0.95;;;;;;;8.17;65.62;99814.31;5001720;28;20066;-43
2023/03/07 04:38:43;;;;;;;4.38;0.88;;;;;;;7.79;66.11;99801.97;5009867;28;20030;-45
2023/03/07 04:41:17;;;;;;;5.22;0.80;;;;;;;7.85;65.81;99801.13;5010230;28;20093;-44
2023/03/07 04:43:42;;;;;;;3.40;0.65;;;;;;;7.93;65.46;99800.31;5012038;28;20092;-42
2023/03/07 04:46:10;;;;;;;6.50;0.80;;;;;;;7.95;65.88;99811.56;5003350;28;20026;-42
2023/03/07 04:48:35;;;;;;;5.32;0.77;;;;;;;7.77;66.34;99800.19;5006999;28;20080;-44
2023/03/07 04:51:01;;;;;;;6.75;1.00;;;;;;;7.83;66.67;99801.09;5008196;28;20030;-42
2023/03/07 04:53:26;;;;;;;4.18;1.00;;;;;;;7.54;67.40;99795.72;5013287;28;20401;-43
2023/03/07 04:56:00;;;;;;;3.80;0.90;;;;;;;7.06;69.67;99793.53;5007926;28;20033;-54
2023/03/07 04:58:26;;;;;;;4.93;1.00;;;;;;;7.13;69.37;99799.66;5007305;28;20025;-48
2023/03/07 05:00:52;;;;;;;3.45;1.00;;;;;;;7.45;68.41;99794.75;5003700;28;20034;-44
2023/03/07 05:03:17;;;;;;;5.43;0.90;;;;;;;7.28;69.41;99802.38;5009169;28;20038;-42
2023/03/07 05:05:42;;;;;;;6.38;1.08;;;;;;;7.05;70.10;99803.88;5010146;28;20030;-43
2023/03/07 05:08:08;;;;;;;2.72;0.80;;;;;;;7.15;69.79;99803.97;5006443;28;20030;-44
2023/03/07 05:10:34;;;;;;;4.22;0.90;;;;;;;6.64;71.14;99817.25;5006364;28;20029;-44
2023/03/07 05:13:00;;;;;;;5.82;1.10;;;;;;;6.99;70.40;99815.06;5003507;28;20395;-44
2023/03/07 05:15:26;;;;;;;4.65;0.75;;;;;;;7.19;69.20;99815.25;5008639;28;20081;-47
2023/03/07 05:17:52;;;;;;;4.72;0.90;;;;;;;7.17;68.74;99814.38;5010273;28;20492;-44
2023/03/07 05:20:18;;;;;;;3.58;0.75;;;;;;;6.98;68.91;99827.97;5007140;28;20034;-44
2023/03/07 05:22:43;;;;;;;4.35;0.70;;;;;;;6.73;68.93;99821.66;5010194;28;20049;-45
2023/03/07 05:25:08;;;;;;;4.20;0.80;;;;;;;6.56;68.98;99818.88;5008012;28;20102;-44
2023/03/07 05:27:34;;;;;;;2.15;0.70;;;;;;;6.14;69.55;99829.50;5007609;28;20515;-43
2023/03/07 05:29:59;;;;;;;5.28;0.88;;;;;;;6.28;68.86;99827.97;5004118;28;20057;-46
2023/03/07 05:32:24;;;;;;;4.25;1.02;;;;;;;6.26;69.06;99827.09;5007839;28;20033;-43
2023/03/07 05:34:50;;;;;;;3.90;0.80;;;;;;;6.33;68.98;99826.34;5003265;28;20090;-43
2023/03/07 05:37:15;;;;;;;2.75;0.70;;;;;;;6.10;69.37;99830.28;5006788;28;20095;-44
2023/03/07 05:39:41;;;;;;;2.67;0.70;;;;;;;6.44;69.09;99834.25;5007362;28;20041;-43
2023/03/07 05:42:06;;;;;;;3.13;0.70;;;;;;;6.00;69.27;99834.47;5003528;28;20034;-43
2023/03/07 05:44:31;;;;;;;6.50;0.82;;;;;;;5.89;69.85;99837.75;5008808;28;20022;-44
2023/03/07 05:46:57;;;;;;;2.08;0.90;;;;;;;5.78;70.13;99836.69;5003935;28;20037;-45
2023/03/07 05:49:23;;;;;;;2.40;0.90;;;;;;;6.01;70.09;99830.19;5006738;28;20480;-45
2023/03/07 05:51:49;;;;;;;3.42;1.00;;;;;;;6.31;69.24;99834.91;5004003;28;20068;-45
2023/03/07 05:54:15;;;;;;;1.95;0.90;;;;;;;6.45;68.71;99823.91;5004316;28;20069;-44
2023/03/07 05:56:40;;;;;;;2.60;1.00;;;;;;;6.29;69.40;99826.25;5006418;28;20042;-45
2023/03/07 05:59:06;;;;;;;3.03;0.90;;;;;;;5.96;70.72;99829.25;5004588;28;20041;-44
2023/03/07 06:01:32;;;;;;;1.95;0.80;;;;;;;6.23;70.17;99823.56;5007328;28;20050;-48
2023/03/07 06:03:58;;;;;;;3.83;1.10;;;;;;;6.03;70.53;99825.91;5003185;28;20033;-46
2023/03/07 06:06:23;;;;;;;4.72;1.00;;;;;;;5.59;71.97;99838.97;5008559;28;20036;-44
2023/03/07 06:08:48;;;;;;;4.50;1.30;;;;;;;5.83;72.14;99832.44;5005668;28;20026;-43
2023/03/07 06:11:14;;;;;;;2.75;0.80;;;;;;;5.77;72.26;99828.06;5008567;28;20033;-45
2023/03/07 06:13:39;;;;;;;3.00;0.75;;;;;;;6.08;71.99;99839.78;5008789;28;20041;-44
2023/03/07 06:16:04;;;;;;;1.75;0.70;;;;;;;6.14;71.00;99829.50;5005623;28;20045;-44
2023/03/07 06:18:30;;;;;;;9.07;0.60;;;;;;;5.76;71.75;99817.69;4992246;28;20033;-42
2023/03/07 06:20:57;;;;;;;4.90;0.80;;;;;;;5.57;72.38;99839.78;5003239;28;20049;-50
2023/03/07 06:23:24;;;;;;;2.58;0.75;;;;;;;5.80;71.82;99835.84;5006294;28;20084;-45
2023/03/07 06:25:49;;;;;;;4.43;0.70;;;;;;;6.08;71.10;99826.84;5003245;28;20034;-44
2023/03/07 06:28:14;;;;;;;2.75;0.70;;;;;;;6.15;70.95;99830.38;5005914;28;20116;-44
2023/03/07 06:30:40;;;;;;;4.22;0.95;;;;;;;5.75;71.84;99834.03;5004592;28;20040;-45
2023/03/07 06:33:05;;;;;;;2.70;1.02;;;;;;;6.06;71.02;99833.69;5000789;28;20068;-44
2023/03/07 06:35:30;;;;;;;4.28;0.80;;;;;;;6.16;71.02;99835.56;5004469;28;20037;-44
2023/03/07 06:37:56;;;;;;;3.78;0.80;;;;;;;6.11;70.97;99832.03;5001411;28;20499;-44
2023/03/07 06:40:21;;;;;;;3.28;0.70;;;;;;;6.24;70.44;99833.97;5005412;28;20053;-44
2023/03/07 06:42:46;;;;;;;1.88;0.70;;;;;;;6.58;69.64;99834.44;4983729;28;20029;-57
2023/03/07 06:45:11;;;;;;;3.72;0.90;;;;;;;6.46;69.73;99832.56;5004582;28;20044;-42
2023/03/07 06:47:37;;;;;;;7.55;1.02;;;;;;;6.47;69.69;99829.09;5004769;28;20030;-46
2023/03/07 06:50:02;;;;;;;4.95;0.80;;;;;;;6.49;69.59;99830.84;5001047;28;20448;-44
2023/03/07 06:52:28;;;;;;;3.88;0.82;;;;;;;6.51;70.14;99836.94;5004734;28;20037;-44
2023/03/07 06:54:53;;;;;;;2.95;0.80;;;;;;;6.59;69.92;99834.41;5001486;28;20041;-47
2023/03/07 06:57:18;;;;;;;2.67;0.80;;;;;;;6.34;70.31;99834.97;5004706;28;20084;-43
2023/03/07 06:59:44;;;;;;;3.95;0.82;;;;;;;6.45;70.14;99836.84;5006612;28;20048;-42
2023/03/07 07:02:13;;;;;;;2.10;0.88;;;;;;;6.18;70.10;99831.28;5001108;28;20033;-45
2023/03/07 07:04:38;;;;;;;5.15;0.90;;;;;;;6.27;70.08;99840.91;5005623;28;20037;-43
2023/03/07 07:07:03;;;;;;;2.80;0.88;;;;;;;6.51;69.47;99838.66;5005762;28;20038;-44
2023/03/07 07:09:29;;;;;;;4.20;0.75;;;;;;;6.49;69.22;99837.75;5011431;28;20030;-43
2023/03/07 07:11:54;;;;;;;3.42;0.70;;;;;;;6.31;69.66;99837.50;5006972;28;20029;-48
2023/03/07 07:14:20;;;;;;;2.95;0.75;;;;;;;6.60;68.84;99846.53;5004064;28;20030;-42
2023/03/07 07:16:46;;;;;;;3.97;0.75;;;;;;;6.07;70.27;99843.19;5007097;28;20137;-43
2023/03/07 07:19:11;;;;;;;5.15;0.73;;;;;;;5.74;71.23;99843.50;4985401;28;20273;-41
2023/03/07 07:21:36;;;;;;;4.15;0.88;;;;;;;5.89;70.80;99840.34;5005546;28;20496;-44
2023/03/07 07:24:02;;;;;;;2.63;0.80;;;;;;;5.99;70.87;99848.25;5002477;28;20030;-44
2023/03/07 07:26:27;;;;;;;4.15;1.00;;;;;;;5.98;70.49;99845.63;5009907;28;20085;-42
2023/03/07 07:28:53;;;;;;;3.40;0.80;;;;;;;5.81;70.95;99847.06;5006247;28;20034;-46
2023/03/07 07:31:18;;;;;;;2.80;0.70;;;;;;;5.96;70.74;99855.97;5005435;28;20484;-43
2023/03/07 07:33:45;;;;;;;3.33;0.68;;;;;;;5.99;70.50;99848.25;5005029;28;20129;-42
2023/03/07 07:36:13;;;;;;;5.68;0.80;;;;;;;5.91;70.53;99846.41;5017742;23;20095;-82
2023/03/07 07:38:41;;;;;;;1.95;0.75;;;;;;;6.23;70.08;99855.50;5029132;28;20033;-81
2023/03/07 07:41:17;;;;;;;2.67;0.73;;;;;;;5.94;70.71;99860.25;5023472;28;20034;-82
2023/03/07 07:43:45;;;;;;;3.15;0.80;;;;;;;6.19;70.49;99858.91;5010406;28;20044;-79
2023/03/07 07:46:11;;;;;;;2.78;0.88;;;;;;;6.14;70.79;99852.81;5023519;28;20025;-80
2023/03/07 07:48:39;;;;;;;5.13;1.25;;;;;;;6.22;71.06;99861.53;5028317;28;20037;-82
2023/03/07 07:51:05;;;;;;;2.58;0.90;;;;;;;6.44;70.74;99862.72;5024818;28;20037;-81
2023/03/07 07:53:31;;;;;;;4.30;1.60;;;;;;;6.49;70.47;99864.50;5012861;28;20033;-81
2023/03/07 07:56:02;;;;;;;4.18;1.08;;;;;;;6.46;70.40;99861.03;5022005;28;20029;-80
2023/03/07 07:58:31;;;;;;;7.78;1.13;;;;;;;6.19;70.58;99864.09;5028244;28;20033;-81
2023/03/07 08:00:56;;;;;;;4.10;0.90;;;;;;;6.44;71.02;99867.91;5007927;28;20029;-80
2023/03/07 08:03:22;;;;;;;3.28;0.73;;;;;;;6.16;71.21;99863.19;5030650;28;20029;-81
2023/03/07 08:05:53;;;;;;;3.65;1.10;;;;;;;6.54;71.08;99869.75;5028063;28;20029;-82
2023/03/07 08:08:18;;;;;;;5.68;0.90;;;;;;;6.41;70.86;99870.44;5013259;28;20105;-80
2023/03/07 08:10:47;;;;;;;3.05;0.80;;;;;;;6.48;70.43;99880.91;5033615;28;20061;-78
2023/03/07 08:13:14;;;;;;;3.13;0.90;;;;;;;6.71;69.58;99868.25;5031879;28;20132;-78
2023/03/07 08:15:40;;;;;;;3.72;0.82;;;;;;;6.51;70.01;99870.59;5040248;28;20040;-80
2023/03/07 08:18:06;;;;;;;4.80;0.90;;;;;;;6.48;69.96;99873.13;5037430;28;20014;-79
2023/03/07 08:20:35;;;;;;;7.32;0.95;;;;;;;6.85;69.41;99876.19;5023600;28;20029;-79
2023/03/07 08:23:01;;;;;;;4.63;0.95;;;;;;;6.82;69.43;99868.41;5036323;28;20029;-81
2023/03/07 08:25:26;;;;;;;3.80;0.82;;;;;;;6.64;69.87;99868.16;5020468;28;20528;-83
2023/03/07 08:27:53;;;;;;;3.85;0.80;;;;;;;6.38;70.74;99863.50;5022359;28;20053;-80
2023/03/07 08:30:27;;;;;;;2.45;0.90;;;;;;;6.57;70.19;99855.97;5025214;28;20136;-82
2023/03/07 08:32:56;;;;;;;4.55;1.10;;;;;;;6.75;69.64;99862.28;5020799;28;20580;-79
2023/03/07 08:35:22;;;;;;;4.72;0.73;;;;;;;6.67;70.28;99863.00;5014153;28;20060;-82
2023/03/07 08:37:56;;;;;;;3.38;0.90;;;;;;;6.73;69.91;99866.56;5025726;28;20036;-81
2023/03/07 08:40:25;;;;;;;3.58;1.00;;;;;;;7.08;69.71;99859.19;5010604;28;20037;-81
2023/03/07 08:42:53;;;;;;;2.72;0.90;;;;;;;7.04;69.93;99860.03;5008008;28;20098;-81
2023/03/07 08:45:19;;;;;;;5.45;1.05;;;;;;;7.06;69.14;99863.50;5029324;28;20042;-82
2023/03/07 08:47:44;;;;;;;5.38;1.60;;;;;;;7.19;69.31;99861.91;5029107;28;20029;-79
2023/03/07 08:50:10;;;;;;;4.30;1.20;;;;;;;7.34;69.32;99860.34;5026946;28;20160;-84
2023/03/07 08:52:38;;;;;;;4.55;0.80;;;;;;;7.32;68.66;99855.97;5011449;28;20034;-80
2023/03/07 08:55:04;;;;;;;4.32;0.90;;;;;;;7.80;67.68;99855.59;5023382;28;20033;-81
2023/03/07 08:57:30;;;;;;;4.85;1.20;;;;;;;8.01;67.38;99866.13;5027591;28;20053;-81
2023/03/07 08:59:55;;;;;;;4.22;0.85;;;;;;;7.88;67.24;99858.22;5023064;28;20482;-83
2023/03/07 09:02:23;;;;;;;3.92;1.00;;;;;;;7.40;68.08;99862.13;5015185;28;20052;-81
2023/03/07 09:04:49;;;;;;;2.80;0.60;;;;;;;7.39;67.43;99862.09;5032129;28;20084;-81
2023/03/07 09:07:18;;;;;;;3.75;0.68;;;;;;;7.41;67.60;99865.59;5013031;28;20037;-82
2023/03/07 09:09:44;;;;;;;2.65;0.50;;;;;;;7.61;67.16;99864.94;5027400;28;20041;-82
2023/03/07 09:12:09;;;;;;;2.65;0.98;;;;;;;7.55;67.74;99864.88;5005075;28;20046;-80
2023/03/07 09:14:37;;;;;;;3.70;0.80;;;;;;;7.99;67.12;99861.78;5027444;28;20033;-82
2023/03/07 09:17:03;;;;;;;3.60;0.70;;;;;;;7.89;66.85;99862.56;5024796;28;20033;-82
2023/03/07 09:19:28;;;;;;;2.20;0.90;;;;;;;7.72;67.36;99863.31;5028155;28;20120;-83
2023/03/07 09:21:54;;;;;;;6.40;0.90;;;;;;;7.51;66.29;99864.81;5025800;28;20371;-80
2023/03/07 09:24:22;;;;;;;3.53;0.80;;;;;;;7.75;66.29;99854.66;5034044;28;20036;-80
2023/03/07 09:26:51;;;;;;;3.33;0.80;;;;;;;7.54;67.34;99864.88;5033215;28;20042;-79
2023/03/07 09:29:19;;;;;;;3.60;0.90;;;;;;;7.39;65.83;99862.97;5037715;28;20098;-79
2023/03/07 09:31:45;;;;;;;4.43;0.80;;;;;;;7.83;64.20;99867.69;5039755;28;20109;-80
2023/03/07 09:34:11;;;;;;;4.07;0.60;;;;;;;7.50;64.16;99866.53;5032428;28;20146;-77
2023/03/07 09:36:36;;;;;;;4.82;0.90;;;;;;;7.86;62.45;99873.81;5031112;28;20033;-84
2023/03/07 09:39:03;;;;;;;2.47;0.55;;;;;;;7.83;62.57;99870.28;5009969;28;20072;-83
2023/03/07 09:41:54;;;;;;;6.80;0.77;;;;;;;7.51;62.43;99875.19;5030918;28;20117;-84
2023/03/07 09:44:25;;;;;;;6.95;0.70;;;;;;;7.46;63.53;99874.28;5027917;28;20029;-83
2023/03/07 09:47:27;;;;;;;2.08;0.70;;;;;;;7.66;63.28;99867.56;5009415;28;20454;-80
2023/03/07 09:49:53;;;;;;;4.40;0.90;;;;;;;7.79;62.32;99864.22;5026935;28;20041;-81
2023/03/07 09:52:22;;;;;;;5.00;0.70;;;;;;;7.88;63.03;99861.69;5013521;28;20025;-81
2023/03/07 09:54:59;;;;;;;3.08;0.65;;;;;;;7.50;65.16;99881.25;5027051;28;20037;-81
2023/03/07 09:57:30;;;;;;;3.25;0.70;;;;;;;7.56;66.01;99879.56;5030732;28;20037;-81
2023/03/07 10:00:25;;;;;;;2.50;0.60;;;;;;;6.85;67.96;99890.03;5028301;28;20038;-83
2023/03/07 10:03:20;;;;;;;4.00;0.70;;;;;;;6.95;68.74;99885.84;4984048;28;20042;-81
2023/03/07 10:05:53;;;;;;;6.70;0.70;;;;;;;6.60;68.94;99880.19;5033726;28;20029;-81
2023/03/07 10:08:31;;;;;;;2.55;0.85;;;;;;;7.10;67.83;99882.53;5013955;28;20033;-84
2023/03/07 10:10:59;;;;;;;3.20;0.70;;;;;;;7.05;68.70;99881.63;5009292;28;20026;-83
2023/03/07 10:13:51;;;;;;;4.97;0.88;;;;;;;7.20;68.34;99882.66;5016397;28;20041;-79
2023/03/07 10:16:39;;;;;;;2.25;0.65;;;;;;;7.48;67.65;99880.38;5012149;28;20060;-83
2023/03/07 10:19:22;;;;;;;5.60;0.70;;;;;;;7.40;67.14;99877.69;5028533;28;20034;-83
2023/03/07 10:22:26;;;;;;;1.88;0.70;;;;;;;7.33;67.71;99879.34;5013976;28;20033;-80
2023/03/07 10:25:19;;;;;;;1.70;0.50;;;;;;;7.62;66.89;99886.56;5025348;28;20041;-80
2023/03/07 10:27:49;;;;;;;2.05;0.50;;;;;;;7.25;66.21;99896.56;5037484;28;20042;-81
2023/03/07 10:30:19;;;;;;;3.58;0.50;;;;;;;6.78;67.64;99897.69;5014752;28;20112;-80
2023/03/07 10:32:48;;;;;;;3.38;0.73;;;;;;;6.82;68.36;99899.50;5014576;28;20498;-80
2023/03/07 10:35:17;;;;;;;2.47;0.60;;;;;;;6.79;67.61;99896.84;5007266;28;20128;-82
2023/03/07 10:37:57;;;;;;;2.72;0.60;;;;;;;6.79;68.00;99897.72;5027940;28;20128;-80
2023/03/07 10:40:29;;;;;;;3.67;0.88;;;;;;;6.77;67.68;99894.22;5026489;28;20033;-81
2023/03/07 10:42:57;;;;;;;4.75;0.95;;;;;;;6.88;67.68;99894.38;5025655;28;20092;-83
2023/03/07 10:45:22;;;;;;;5.28;0.90;;;;;;;7.14;67.25;99892.06;5032201;28;20061;-82
2023/03/07 10:47:48;;;;;;;5.65;1.00;;;;;;;7.15;67.89;99896.41;5010676;28;20083;-80
2023/03/07 10:50:56;;;;;;;4.88;0.85;;;;;;;6.76;68.21;99900.28;5030831;28;20056;-81
2023/03/07 10:53:28;;;;;;;1.92;0.60;;;;;;;7.34;67.14;99895.78;5010687;28;20482;-80
2023/03/07 10:56:08;;;;;;;3.60;0.73;;;;;;;6.98;67.70;99891.03;5012663;28;20032;-80
2023/03/07 10:58:36;;;;;;;3.78;0.77;;;;;;;7.19;67.21;99891.31;5030219;28;20443;-81
2023/03/07 11:01:13;;;;;;;4.28;0.75;;;;;;;7.24;67.78;99906.91;5011771;28;20195;-82
2023/03/07 11:04:25;;;;;;;3.33;0.70;;;;;;;7.09;67.68;99897.22;5036049;28;20033;-82
2023/03/07 11:06:59;;;;;;;6.15;0.80;;;;;;;7.02;67.46;99890.22;4990140;28;20045;-81
2023/03/07 11:09:33;;;;;;;5.75;0.80;;;;;;;7.49;66.26;99897.66;5014428;28;20463;-79
2023/03/07 11:12:05;;;;;;;3.75;0.82;;;;;;;7.19;67.66;99899.09;5028138;28;20044;-82
2023/03/07 11:14:47;;;;;;;3.08;0.70;;;;;;;7.09;68.88;99899.81;5031956;28;20044;-81
2023/03/07 11:17:42;;;;;;;3.20;0.70;;;;;;;6.97;67.85;99898.78;5005067;28;20035;-80
2023/03/07 11:20:25;;;;;;;6.28;1.00;;;;;;;7.29;68.29;99900.91;5023632;28;20382;-81
2023/03/07 11:23:32;;;;;;;4.25;0.65;;;;;;;7.31;67.71;99898.34;5025009;28;20075;-82
2023/03/07 11:26:21;;;;;;;4.15;0.77;;;;;;;7.16;67.92;99893.84;5024439;28;20041;-80
2023/03/07 11:29:04;;;;;;;3.47;0.70;;;;;;;7.56;67.10;99902.91;5014377;28;20033;-80
2023/03/07 11:31:44;;;;;;;3.35;0.82;;;;;;;7.06;67.47;99909.28;5011267;28;20033;-80
2023/03/07 11:34:35;;;;;;;3.75;1.23;;;;;;;6.95;68.51;99910.88;5017524;28;20053;-79
2023/03/07 11:37:38;;;;;;;3.00;0.60;;;;;;;6.79;68.02;99913.25;5039614;28;20041;-82
2023/03/07 11:40:27;;;;;;;4.00;0.70;;;;;;;6.82;68.74;99917.63;5019654;28;20102;-80
2023/03/07 11:42:59;;;;;;;3.90;0.80;;;;;;;7.08;68.53;99913.63;5009919;28;20081;-82
2023/03/07 11:45:37;;;;;;;4.93;0.70;;;;;;;6.89;68.24;99904.75;5029616;28;20103;-80
2023/03/07 11:48:31;;;;;;;2.00;0.63;;;;;;;6.53;67.80;99910.31;5007405;28;20038;-83
2023/03/07 11:50:58;;;;;;;2.17;0.50;;;;;;;6.98;67.63;99903.13;5033629;28;20029;-80